Time;durP1;ratioP1;P1;durP2;ratioP2;P2;SDS_P1;SDS_P2;PMS_P1;PMS_P2;Temp;Humidity;BMP_temperature;BMP_pressure;BME280_temperature;BME280_humidity;BME280_pressure;Samples;Min_cycle;Max_cycle;Signal;HPM_P1;HPM_P2
2022/12/08 00:01:39;;;;;;;18.70;12.63;;;;;;;;;;5073280;28;20244;-85
2022/12/08 00:04:06;;;;;;;19.83;12.17;;;;;;;;;;5063632;28;20206;-84
2022/12/08 00:09:23;;;;;;;16.07;11.00;;;;;;;;;;5066260;28;20182;-84
2022/12/08 00:11:54;;;;;;;13.97;10.67;;;;;;;;;;5069021;28;20233;-84
2022/12/08 00:14:25;;;;;;;19.37;12.80;;;;;;;;;;5060500;28;20185;-84
2022/12/08 00:16:52;;;;;;;17.63;12.37;;;;;;;;;;5062113;28;20232;-84
2022/12/08 00:19:19;;;;;;;15.53;11.63;;;;;;;;;;5059157;28;20202;-84
2022/12/08 00:21:46;;;;;;;17.30;11.83;;;;;;;;;;5057110;28;20242;-85
2022/12/08 00:24:13;;;;;;;17.87;12.03;;;;;;;;;;5060192;28;20204;-84
2022/12/08 00:26:40;;;;;;;6.57;4.70;;;;;;;;;;5073209;28;20240;-85
2022/12/08 00:29:08;;;;;;;20.37;11.67;;;;;;;;;;5069405;28;20557;-85
2022/12/08 00:31:36;;;;;;;17.87;12.17;;;;;;;;;;5067028;28;20241;-85
2022/12/08 00:34:04;;;;;;;19.57;13.20;;;;;;;;;;5057677;28;20207;-84
2022/12/08 00:36:31;;;;;;;18.20;11.63;;;;;;;;;;5052948;28;20704;-85
2022/12/08 00:38:58;;;;;;;18.57;12.33;;;;;;;;;;5058043;28;20206;-85
2022/12/08 00:44:07;;;;;;;17.80;10.67;;;;;;;;;;5066372;28;20560;-85
2022/12/08 00:46:35;;;;;;;15.07;10.97;;;;;;;;;;5090483;28;20230;-85
2022/12/08 00:49:04;;;;;;;18.33;12.07;;;;;;;;;;5088109;28;20190;-85
2022/12/08 00:51:31;;;;;;;21.93;12.10;;;;;;;;;;5084895;28;20229;-85
2022/12/08 00:53:58;;;;;;;16.57;12.40;;;;;;;;;;5092366;28;20204;-85
2022/12/08 00:56:25;;;;;;;23.73;13.63;;;;;;;;;;5092658;28;20299;-85
2022/12/08 00:58:52;;;;;;;17.23;11.73;;;;;;;;;;5067669;28;20725;-85
2022/12/08 01:01:20;;;;;;;22.87;13.40;;;;;;;;;;5064372;28;20245;-85
2022/12/08 01:03:47;;;;;;;19.77;13.00;;;;;;;;;;5057943;28;20206;-85
2022/12/08 01:06:15;;;;;;;19.43;12.97;;;;;;;;;;5052669;28;20229;-85
2022/12/08 01:08:42;;;;;;;19.47;12.33;;;;;;;;;;5053359;28;20206;-84
2022/12/08 01:11:11;;;;;;;15.50;11.93;;;;;;;;;;5062770;28;20249;-84
2022/12/08 01:13:38;;;;;;;17.87;12.87;;;;;;;;;;5067792;28;20706;-85
2022/12/08 01:16:05;;;;;;;15.73;10.60;;;;;;;;;;5052253;28;20235;-85
2022/12/08 01:18:32;;;;;;;16.13;10.57;;;;;;;;;;5052839;28;20220;-85
2022/12/08 01:21:02;;;;;;;17.43;12.33;;;;;;;;;;5051940;28;20318;-84
2022/12/08 01:23:31;;;;;;;18.47;12.93;;;;;;;;;;5052872;28;20210;-85
2022/12/08 01:26:02;;;;;;;21.33;14.37;;;;;;;;;;5067985;28;20255;-85
2022/12/08 01:28:29;;;;;;;19.57;13.13;;;;;;;;;;5067391;28;20196;-85
2022/12/08 01:30:56;;;;;;;19.57;11.03;;;;;;;;;;5060725;28;20270;-85
2022/12/08 01:33:23;;;;;;;23.23;15.20;;;;;;;;;;5072661;28;20190;-85
2022/12/08 01:35:50;;;;;;;21.33;13.30;;;;;;;;;;5064859;28;20236;-85
2022/12/08 01:38:18;;;;;;;18.73;12.13;;;;;;;;;;5055683;28;20235;-85
2022/12/08 01:40:46;;;;;;;18.97;12.70;;;;;;;;;;5063257;28;20226;-86
2022/12/08 01:43:14;;;;;;;10.63;7.63;;;;;;;;;;5063967;28;20198;-85
2022/12/08 01:45:42;;;;;;;19.67;13.10;;;;;;;;;;5067295;28;20343;-85
2022/12/08 01:48:12;;;;;;;18.07;12.23;;;;;;;;;;5051839;28;20233;-85
2022/12/08 01:50:40;;;;;;;22.87;13.70;;;;;;;;;;5059246;28;20233;-84
2022/12/08 01:53:09;;;;;;;22.20;11.30;;;;;;;;;;5071900;28;20209;-84
2022/12/08 01:55:39;;;;;;;20.70;14.53;;;;;;;;;;5071613;28;20241;-85
2022/12/08 01:58:12;;;;;;;20.40;12.67;;;;;;;;;;5070763;28;20224;-84
2022/12/08 02:00:39;;;;;;;18.10;13.23;;;;;;;;;;5058205;28;20246;-85
2022/12/08 02:03:07;;;;;;;20.60;13.07;;;;;;;;;;5068336;28;20201;-85
2022/12/08 02:05:36;;;;;;;18.30;13.30;;;;;;;;;;5076500;28;20236;-85
2022/12/08 02:08:06;;;;;;;20.63;13.27;;;;;;;;;;5067211;28;20278;-85
2022/12/08 02:10:34;;;;;;;23.37;12.77;;;;;;;;;;5071409;28;20243;-84
2022/12/08 02:13:02;;;;;;;18.20;13.43;;;;;;;;;;5072072;28;20670;-84
2022/12/08 02:15:34;;;;;;;21.37;14.50;;;;;;;;;;5071448;28;20233;-84
2022/12/08 02:18:10;;;;;;;20.27;13.43;;;;;;;;;;5072095;28;20681;-85
2022/12/08 02:20:49;;;;;;;20.90;13.33;;;;;;;;;;5086798;28;20234;-85
2022/12/08 02:23:20;;;;;;;18.67;13.37;;;;;;;;;;5092264;28;20662;-85
2022/12/08 02:25:57;;;;;;;19.60;14.00;;;;;;;;;;5091853;28;20245;-84
2022/12/08 02:28:33;;;;;;;18.87;12.97;;;;;;;;;;5092224;28;20641;-84
2022/12/08 02:31:09;;;;;;;17.43;12.27;;;;;;;;;;5091715;28;20245;-84
2022/12/08 02:33:54;;;;;;;21.67;13.33;;;;;;;;;;5092188;28;20213;-84
2022/12/08 02:36:24;;;;;;;18.17;12.70;;;;;;;;;;5077721;28;20236;-84
2022/12/08 02:38:56;;;;;;;18.17;12.73;;;;;;;;;;5070562;28;20695;-84
2022/12/08 02:41:27;;;;;;;22.20;12.80;;;;;;;;;;5065510;28;20228;-84
2022/12/08 02:43:57;;;;;;;19.43;12.87;;;;;;;;;;5058976;28;20666;-84
2022/12/08 02:46:27;;;;;;;16.23;11.53;;;;;;;;;;5070871;28;20237;-84
2022/12/08 02:48:56;;;;;;;20.53;13.10;;;;;;;;;;5066077;28;20245;-84
2022/12/08 02:51:24;;;;;;;21.23;12.70;;;;;;;;;;5074120;28;20584;-84
2022/12/08 02:53:52;;;;;;;19.20;12.80;;;;;;;;;;5075542;28;20213;-84
2022/12/08 02:56:26;;;;;;;20.23;13.27;;;;;;;;;;5072173;28;20728;-84
2022/12/08 02:59:01;;;;;;;20.27;12.90;;;;;;;;;;5060595;28;20599;-84
2022/12/08 03:01:37;;;;;;;17.00;11.77;;;;;;;;;;5073993;28;20708;-83
2022/12/08 03:04:07;;;;;;;15.50;10.03;;;;;;;;;;5074365;28;20213;-84
2022/12/08 03:06:41;;;;;;;19.60;13.50;;;;;;;;;;5074316;28;20227;-84
2022/12/08 03:09:11;;;;;;;21.67;14.73;;;;;;;;;;5075444;28;20192;-84
2022/12/08 03:11:41;;;;;;;23.27;13.47;;;;;;;;;;5064896;28;20236;-84
2022/12/08 03:14:09;;;;;;;21.40;14.43;;;;;;;;;;5064365;28;20208;-84
2022/12/08 03:16:39;;;;;;;22.17;12.30;;;;;;;;;;5074213;28;20229;-84
2022/12/08 03:19:10;;;;;;;18.07;10.87;;;;;;;;;;5074756;28;20225;-84
2022/12/08 03:21:39;;;;;;;16.47;11.17;;;;;;;;;;5074157;28;20826;-84
2022/12/08 03:24:07;;;;;;;19.53;13.77;;;;;;;;;;5074750;28;20216;-84
2022/12/08 03:26:36;;;;;;;21.93;14.70;;;;;;;;;;5074292;28;20229;-84
2022/12/08 03:29:04;;;;;;;24.70;14.93;;;;;;;;;;5074350;28;20207;-84
2022/12/08 03:31:34;;;;;;;20.67;13.27;;;;;;;;;;5073998;28;20241;-85
2022/12/08 03:34:01;;;;;;;20.53;13.13;;;;;;;;;;5074610;28;20209;-85
2022/12/08 03:36:28;;;;;;;23.00;13.00;;;;;;;;;;5076140;28;20239;-84
2022/12/08 03:38:57;;;;;;;18.80;13.10;;;;;;;;;;5074424;28;20233;-84
2022/12/08 03:41:24;;;;;;;19.93;13.83;;;;;;;;;;5073749;28;20260;-84
2022/12/08 03:43:52;;;;;;;17.27;11.63;;;;;;;;;;5074509;28;20205;-83
2022/12/08 03:46:20;;;;;;;17.37;11.77;;;;;;;;;;5073814;28;20233;-83
2022/12/08 03:48:47;;;;;;;21.13;13.20;;;;;;;;;;5073283;28;20241;-83
2022/12/08 03:51:14;;;;;;;17.87;11.30;;;;;;;;;;5058474;28;20716;-84
2022/12/08 03:53:41;;;;;;;14.37;9.50;;;;;;;;;;5071993;28;20198;-84
2022/12/08 03:56:14;;;;;;;12.33;10.00;;;;;;;;;;5074145;28;20226;-84
2022/12/08 03:58:43;;;;;;;14.23;10.57;;;;;;;;;;5072614;28;20212;-84
2022/12/08 04:01:10;;;;;;;13.77;8.97;;;;;;;;;;5073082;28;20251;-85
2022/12/08 04:03:37;;;;;;;17.50;12.50;;;;;;;;;;5066933;28;20200;-84
2022/12/08 04:06:04;;;;;;;16.97;11.77;;;;;;;;;;5053680;28;20247;-84
2022/12/08 04:08:31;;;;;;;17.20;12.40;;;;;;;;;;5067406;28;20193;-85
2022/12/08 04:10:58;;;;;;;22.23;13.20;;;;;;;;;;5071200;28;20257;-84
2022/12/08 04:13:26;;;;;;;13.97;9.53;;;;;;;;;;5055648;28;20194;-85
2022/12/08 04:15:54;;;;;;;18.37;7.60;;;;;;;;;;5064925;28;20238;-85
2022/12/08 04:18:22;;;;;;;16.43;10.10;;;;;;;;;;5053356;28;20241;-85
2022/12/08 04:20:49;;;;;;;17.50;11.97;;;;;;;;;;5053207;28;20240;-85
2022/12/08 04:23:16;;;;;;;18.30;12.10;;;;;;;;;;5053368;28;20202;-84
2022/12/08 04:25:43;;;;;;;18.83;12.57;;;;;;;;;;5053069;28;20230;-84
2022/12/08 04:28:10;;;;;;;18.23;11.60;;;;;;;;;;5053001;28;20210;-85
2022/12/08 04:30:37;;;;;;;15.67;10.27;;;;;;;;;;5052560;28;20240;-85
2022/12/08 04:33:06;;;;;;;15.37;11.07;;;;;;;;;;5053268;28;20192;-84
2022/12/08 04:35:33;;;;;;;15.83;11.13;;;;;;;;;;5065979;28;20264;-85
2022/12/08 04:38:00;;;;;;;18.70;12.90;;;;;;;;;;5055933;28;20206;-85
2022/12/08 04:40:27;;;;;;;17.47;11.67;;;;;;;;;;5060955;28;20228;-85
2022/12/08 04:42:54;;;;;;;15.17;12.20;;;;;;;;;;5077820;28;20225;-85
2022/12/08 04:45:22;;;;;;;20.20;11.83;;;;;;;;;;5063145;28;20281;-85
2022/12/08 04:47:49;;;;;;;15.90;10.60;;;;;;;;;;5067588;28;20219;-84
2022/12/08 04:50:17;;;;;;;15.03;11.20;;;;;;;;;;5053211;28;20209;-84
2022/12/08 04:52:44;;;;;;;10.90;7.17;;;;;;;;;;5052558;28;20227;-84
2022/12/08 04:55:11;;;;;;;19.23;11.40;;;;;;;;;;5052961;28;20230;-84
2022/12/08 04:57:39;;;;;;;15.07;10.07;;;;;;;;;;5052674;28;20207;-84
2022/12/08 05:00:06;;;;;;;20.50;11.10;;;;;;;;;;5052310;28;20229;-85
2022/12/08 05:02:33;;;;;;;16.20;11.70;;;;;;;;;;5053026;28;20730;-84
2022/12/08 05:05:01;;;;;;;14.50;10.13;;;;;;;;;;5062757;28;20568;-84
2022/12/08 05:07:29;;;;;;;21.53;11.17;;;;;;;;;;5061405;28;20251;-85
2022/12/08 05:09:56;;;;;;;13.07;10.63;;;;;;;;;;5051600;28;20571;-83
2022/12/08 05:12:23;;;;;;;12.37;8.97;;;;;;;;;;5066843;28;20230;-84
2022/12/08 05:14:50;;;;;;;15.57;11.00;;;;;;;;;;5072204;28;20220;-83
2022/12/08 05:17:18;;;;;;;18.57;12.73;;;;;;;;;;5071626;28;20253;-83
2022/12/08 05:19:45;;;;;;;18.20;11.93;;;;;;;;;;5062302;28;20214;-83
2022/12/08 05:22:12;;;;;;;19.87;11.10;;;;;;;;;;5051649;28;20239;-83
2022/12/08 05:24:40;;;;;;;16.63;11.33;;;;;;;;;;5067980;28;20206;-83
2022/12/08 05:27:07;;;;;;;16.03;10.30;;;;;;;;;;5071605;28;20599;-83
2022/12/08 05:29:34;;;;;;;11.90;9.13;;;;;;;;;;5078083;28;20195;-83
2022/12/08 05:32:02;;;;;;;12.13;10.03;;;;;;;;;;5091424;28;20232;-83
2022/12/08 05:34:29;;;;;;;16.33;10.50;;;;;;;;;;5092404;28;20573;-84
2022/12/08 05:36:56;;;;;;;17.20;11.30;;;;;;;;;;5091621;28;20270;-84
2022/12/08 05:39:23;;;;;;;16.90;10.93;;;;;;;;;;5072031;28;20219;-83
2022/12/08 05:41:52;;;;;;;17.73;10.83;;;;;;;;;;5071198;28;20292;-83
2022/12/08 05:44:19;;;;;;;14.83;10.03;;;;;;;;;;5071873;28;20679;-85
2022/12/08 05:46:46;;;;;;;14.57;10.40;;;;;;;;;;5091407;28;20242;-83
2022/12/08 05:49:13;;;;;;;13.33;9.70;;;;;;;;;;5092084;28;20652;-83
2022/12/08 05:51:40;;;;;;;13.63;9.87;;;;;;;;;;5091361;28;20247;-84
2022/12/08 05:54:07;;;;;;;13.73;10.07;;;;;;;;;;5091953;28;20211;-83
2022/12/08 05:56:34;;;;;;;16.60;11.47;;;;;;;;;;5091018;28;20230;-83
2022/12/08 05:59:05;;;;;;;15.53;11.07;;;;;;;;;;5091341;28;20234;-83
2022/12/08 06:01:32;;;;;;;15.77;10.10;;;;;;;;;;5091405;28;20246;-83
2022/12/08 06:04:00;;;;;;;9.00;7.73;;;;;;;;;;5092124;28;20216;-83
2022/12/08 06:06:27;;;;;;;15.47;9.97;;;;;;;;;;5091891;28;20324;-86
2022/12/08 06:08:55;;;;;;;13.50;9.53;;;;;;;;;;5081792;28;20197;-85
2022/12/08 06:11:23;;;;;;;13.80;10.60;;;;;;;;;;5071096;28;20701;-84
2022/12/08 06:13:51;;;;;;;17.40;10.30;;;;;;;;;;5071614;28;20687;-84
2022/12/08 06:16:19;;;;;;;15.27;10.03;;;;;;;;;;5071367;28;20236;-85
2022/12/08 06:18:47;;;;;;;14.30;9.67;;;;;;;;;;5071483;28;20309;-86
2022/12/08 06:21:16;;;;;;;15.57;10.50;;;;;;;;;;5072410;28;20236;-84
2022/12/08 06:23:43;;;;;;;16.37;10.43;;;;;;;;;;5075618;28;20207;-84
2022/12/08 06:26:11;;;;;;;15.07;9.37;;;;;;;;;;5075106;28;20239;-84
2022/12/08 06:28:39;;;;;;;14.13;10.37;;;;;;;;;;5075549;28;20201;-84
2022/12/08 06:31:07;;;;;;;8.80;6.50;;;;;;;;;;5074909;28;20239;-84
2022/12/08 06:33:37;;;;;;;13.77;9.27;;;;;;;;;;5075519;28;20216;-84
2022/12/08 06:36:04;;;;;;;14.33;10.00;;;;;;;;;;5075043;28;20236;-84
2022/12/08 06:38:31;;;;;;;14.63;10.63;;;;;;;;;;5075353;28;20208;-84
2022/12/08 06:40:59;;;;;;;14.83;9.67;;;;;;;;;;5074592;28;20239;-83
2022/12/08 06:43:26;;;;;;;14.60;10.60;;;;;;;;;;5074965;28;20665;-84
2022/12/08 06:45:53;;;;;;;14.10;9.60;;;;;;;;;;5074909;28;20243;-83
2022/12/08 06:48:20;;;;;;;13.17;10.10;;;;;;;;;;5075302;28;20218;-84
2022/12/08 06:50:52;;;;;;;15.63;10.10;;;;;;;;;;5074792;28;20263;-83
2022/12/08 06:53:19;;;;;;;14.57;10.03;;;;;;;;;;5075361;28;20210;-83
2022/12/08 06:55:47;;;;;;;14.67;9.87;;;;;;;;;;5074323;28;20249;-82
2022/12/08 06:58:14;;;;;;;16.87;9.10;;;;;;;;;;5075080;28;20205;-85
2022/12/08 07:00:42;;;;;;;15.57;10.80;;;;;;;;;;5074601;28;20237;-85
2022/12/08 07:03:10;;;;;;;14.00;9.83;;;;;;;;;;5075161;28;20201;-85
2022/12/08 07:05:37;;;;;;;14.90;10.00;;;;;;;;;;5074368;28;20234;-85
2022/12/08 07:08:06;;;;;;;10.27;8.33;;;;;;;;;;5074597;28;20213;-85
2022/12/08 07:10:33;;;;;;;14.13;10.33;;;;;;;;;;5074641;28;20236;-85
2022/12/08 07:13:00;;;;;;;14.27;9.73;;;;;;;;;;5074755;28;20207;-84
2022/12/08 07:15:27;;;;;;;13.13;8.90;;;;;;;;;;5074462;28;20232;-84
2022/12/08 07:17:55;;;;;;;8.83;6.37;;;;;;;;;;5073851;28;20765;-83
2022/12/08 07:20:22;;;;;;;8.37;6.70;;;;;;;;;;5074045;28;20607;-83
2022/12/08 07:22:49;;;;;;;14.47;10.67;;;;;;;;;;5074092;28;20591;-83
2022/12/08 07:25:18;;;;;;;16.73;10.00;;;;;;;;;;5073756;28;20209;-83
2022/12/08 07:27:45;;;;;;;15.37;10.13;;;;;;;;;;5074215;28;20213;-83
2022/12/08 07:30:13;;;;;;;14.70;10.47;;;;;;;;;;5073568;28;20206;-83
2022/12/08 07:32:40;;;;;;;15.07;9.70;;;;;;;;;;5064734;28;20319;-83
2022/12/08 07:35:08;;;;;;;14.83;10.10;;;;;;;;;;5066547;28;20550;-83
2022/12/08 07:37:36;;;;;;;16.23;10.90;;;;;;;;;;5056550;28;21356;-83
2022/12/08 07:40:03;;;;;;;15.37;10.40;;;;;;;;;;5072419;28;20609;-83
2022/12/08 07:42:32;;;;;;;16.47;10.80;;;;;;;;;;5073541;28;20229;-84
2022/12/08 07:44:59;;;;;;;12.57;9.63;;;;;;;;;;5073202;28;20214;-83
2022/12/08 07:47:26;;;;;;;15.70;11.07;;;;;;;;;;5072935;28;20316;-83
2022/12/08 07:49:53;;;;;;;14.10;8.80;;;;;;;;;;5073199;28;20604;-83
2022/12/08 07:52:20;;;;;;;14.53;10.60;;;;;;;;;;5072702;28;20245;-83
2022/12/08 07:54:48;;;;;;;23.53;12.43;;;;;;;;;;5073422;28;20216;-83
2022/12/08 07:57:15;;;;;;;20.67;12.10;;;;;;;;;;5072676;28;20590;-83
2022/12/08 07:59:44;;;;;;;17.30;10.70;;;;;;;;;;5073178;28;20238;-83
2022/12/08 08:02:18;;;;;;;27.93;13.07;;;;;;;;;;5072363;28;20995;-83
2022/12/08 08:04:45;;;;;;;20.17;12.50;;;;;;;;;;5073294;28;20205;-83
2022/12/08 08:07:12;;;;;;;18.97;13.40;;;;;;;;;;5072833;28;20239;-83
2022/12/08 08:09:39;;;;;;;64.47;26.50;;;;;;;;;;5072862;28;20540;-83
2022/12/08 08:12:06;;;;;;;16.80;12.07;;;;;;;;;;5072325;28;20246;-83
2022/12/08 08:14:33;;;;;;;39.60;15.63;;;;;;;;;;5073217;28;20226;-83
2022/12/08 08:17:02;;;;;;;55.33;22.13;;;;;;;;;;5072459;28;20724;-83
2022/12/08 08:19:29;;;;;;;43.13;18.07;;;;;;;;;;5073018;28;20253;-82
2022/12/08 08:21:56;;;;;;;83.43;28.63;;;;;;;;;;5072324;28;20238;-83
2022/12/08 08:24:23;;;;;;;15.20;11.20;;;;;;;;;;5073236;28;20207;-83
2022/12/08 08:26:52;;;;;;;14.60;10.90;;;;;;;;;;5072197;28;20797;-82
2022/12/08 08:29:19;;;;;;;32.97;15.97;;;;;;;;;;5072763;28;20657;-82
2022/12/08 08:31:46;;;;;;;17.83;11.03;;;;;;;;;;5072088;28;20243;-84
2022/12/08 08:34:15;;;;;;;21.60;13.00;;;;;;;;;;5073161;28;20201;-83
2022/12/08 08:36:42;;;;;;;18.90;12.23;;;;;;;;;;5072411;28;20233;-83
2022/12/08 08:39:09;;;;;;;25.80;16.10;;;;;;;;;;5072996;28;20216;-83
2022/12/08 08:41:36;;;;;;;16.43;11.23;;;;;;;;;;5072278;28;20241;-84
2022/12/08 08:44:03;;;;;;;14.87;11.43;;;;;;;;;;5072557;28;20208;-82
2022/12/08 08:46:30;;;;;;;11.73;8.83;;;;;;;;;;5072352;28;20244;-83
2022/12/08 08:48:57;;;;;;;17.67;10.80;;;;;;;;;;5072595;28;20209;-83
2022/12/08 08:51:26;;;;;;;19.00;12.17;;;;;;;;;;5072284;28;20236;-84
2022/12/08 08:53:53;;;;;;;15.07;11.63;;;;;;;;;;5072690;28;20212;-84
2022/12/08 08:56:20;;;;;;;15.43;9.30;;;;;;;;;;5072193;28;20239;-84
2022/12/08 08:58:48;;;;;;;18.40;11.93;;;;;;;;;;5072461;28;20201;-83
2022/12/08 09:01:16;;;;;;;15.90;11.53;;;;;;;;;;5071857;28;20241;-83
2022/12/08 09:03:43;;;;;;;18.13;12.33;;;;;;;;;;5072197;28;20673;-84
2022/12/08 09:06:10;;;;;;;14.83;10.13;;;;;;;;;;5072137;28;20243;-84
2022/12/08 09:08:40;;;;;;;14.60;10.47;;;;;;;;;;5072269;28;20209;-84
2022/12/08 09:11:07;;;;;;;17.47;11.43;;;;;;;;;;5071697;28;20267;-84
2022/12/08 09:13:34;;;;;;;15.93;11.33;;;;;;;;;;5072058;28;20212;-83
2022/12/08 09:16:02;;;;;;;17.00;10.40;;;;;;;;;;5074848;28;20236;-84
2022/12/08 09:18:29;;;;;;;15.10;11.80;;;;;;;;;;5072989;28;20194;-84
2022/12/08 09:20:56;;;;;;;18.30;12.67;;;;;;;;;;5071767;28;20757;-83
2022/12/08 09:23:23;;;;;;;16.20;10.67;;;;;;;;;;5071992;28;20208;-83
2022/12/08 09:25:52;;;;;;;17.50;10.73;;;;;;;;;;5071619;28;20233;-84
2022/12/08 09:28:19;;;;;;;13.73;10.80;;;;;;;;;;5071425;28;20205;-83
2022/12/08 09:30:46;;;;;;;13.73;9.50;;;;;;;;;;5071490;28;20236;-84
2022/12/08 09:33:13;;;;;;;16.23;10.53;;;;;;;;;;5071929;28;20196;-84
2022/12/08 09:35:40;;;;;;;16.40;10.70;;;;;;;;;;5071038;28;20230;-83
2022/12/08 09:38:07;;;;;;;16.27;10.70;;;;;;;;;;5071481;28;20205;-84
2022/12/08 09:40:37;;;;;;;12.50;9.47;;;;;;;;;;5070931;28;20244;-84
2022/12/08 09:43:10;;;;;;;13.87;9.53;;;;;;;;;;5071572;28;20292;-83
2022/12/08 09:45:37;;;;;;;8.50;6.43;;;;;;;;;;5068707;28;20538;-84
2022/12/08 09:48:07;;;;;;;13.83;9.37;;;;;;;;;;5068235;28;20201;-83
2022/12/08 09:50:35;;;;;;;16.97;8.80;;;;;;;;;;5068844;28;20232;-83
2022/12/08 09:53:06;;;;;;;11.33;9.07;;;;;;;;;;5069521;28;20215;-84
2022/12/08 09:55:37;;;;;;;11.77;9.33;;;;;;;;;;5067962;28;20320;-83
2022/12/08 09:58:05;;;;;;;13.87;8.90;;;;;;;;;;5069272;28;20211;-82
2022/12/08 10:00:34;;;;;;;13.53;10.30;;;;;;;;;;5068667;28;20243;-84
2022/12/08 10:03:01;;;;;;;16.70;9.33;;;;;;;;;;5069715;28;20201;-83
2022/12/08 10:05:29;;;;;;;11.63;8.57;;;;;;;;;;5069608;28;20245;-84
2022/12/08 10:08:01;;;;;;;12.00;8.40;;;;;;;;;;5069334;28;20682;-84
2022/12/08 10:10:34;;;;;;;14.27;9.17;;;;;;;;;;5069006;28;20236;-84
2022/12/08 10:13:04;;;;;;;13.77;9.67;;;;;;;;;;5068894;28;20213;-83
2022/12/08 10:15:37;;;;;;;8.03;5.67;;;;;;;;;;5067685;28;20232;-83
2022/12/08 10:18:11;;;;;;;16.03;10.33;;;;;;;;;;5070284;28;20585;-83
2022/12/08 10:20:39;;;;;;;14.57;9.10;;;;;;;;;;5069108;28;20240;-83
2022/12/08 10:23:09;;;;;;;14.93;9.87;;;;;;;;;;5069066;28;20205;-83
2022/12/08 10:25:38;;;;;;;11.83;7.87;;;;;;;;;;5068076;28;20708;-83
2022/12/08 10:28:05;;;;;;;11.00;8.00;;;;;;;;;;5069653;28;20585;-83
2022/12/08 10:30:32;;;;;;;13.83;9.70;;;;;;;;;;5068396;28;20239;-83
2022/12/08 10:33:01;;;;;;;12.47;8.40;;;;;;;;;;5069242;28;20872;-83
2022/12/08 10:35:42;;;;;;;15.03;6.57;;;;;;;;;;5066840;28;20232;-83
2022/12/08 10:38:16;;;;;;;8.67;6.60;;;;;;;;;;5069879;28;20196;-83
2022/12/08 10:40:44;;;;;;;8.63;6.80;;;;;;;;;;5068805;28;20229;-83
2022/12/08 10:43:15;;;;;;;8.40;6.70;;;;;;;;;;5069618;28;20210;-84
2022/12/08 10:45:43;;;;;;;8.83;6.57;;;;;;;;;;5066912;28;20701;-83
2022/12/08 10:48:16;;;;;;;9.43;7.10;;;;;;;;;;5067977;28;20346;-83
2022/12/08 10:50:44;;;;;;;10.60;7.57;;;;;;;;;;5067440;28;20229;-83
2022/12/08 10:53:13;;;;;;;6.73;5.87;;;;;;;;;;5068892;28;20637;-84
2022/12/08 10:55:42;;;;;;;8.83;6.80;;;;;;;;;;5068545;28;20230;-84
2022/12/08 10:58:24;;;;;;;11.27;7.43;;;;;;;;;;5069908;28;20654;-83
2022/12/08 11:00:52;;;;;;;9.27;7.07;;;;;;;;;;5068285;28;20237;-83
2022/12/08 11:03:25;;;;;;;8.47;6.73;;;;;;;;;;5069586;28;20205;-83
2022/12/08 11:05:56;;;;;;;9.33;6.87;;;;;;;;;;5068902;28;20236;-84
2022/12/08 11:08:23;;;;;;;11.27;6.87;;;;;;;;;;5071098;28;20204;-83
2022/12/08 11:10:50;;;;;;;8.90;6.47;;;;;;;;;;5072855;28;20270;-84
2022/12/08 11:13:19;;;;;;;12.83;8.67;;;;;;;;;;5072222;28;20669;-83
2022/12/08 11:15:46;;;;;;;9.90;7.13;;;;;;;;;;5070707;28;20240;-83
2022/12/08 11:18:22;;;;;;;10.80;6.90;;;;;;;;;;5072753;28;20216;-83
2022/12/08 11:20:56;;;;;;;8.67;6.10;;;;;;;;;;5071821;28;20653;-83
2022/12/08 11:23:25;;;;;;;11.20;7.57;;;;;;;;;;5072506;28;20209;-83
2022/12/08 11:25:54;;;;;;;9.87;7.33;;;;;;;;;;5070625;28;20237;-83
2022/12/08 11:28:23;;;;;;;7.80;5.97;;;;;;;;;;5073044;28;20202;-83
2022/12/08 11:30:54;;;;;;;9.03;6.43;;;;;;;;;;5070095;28;20238;-84
2022/12/08 11:33:22;;;;;;;8.43;5.40;;;;;;;;;;5072415;28;20205;-83
2022/12/08 11:35:53;;;;;;;8.93;6.73;;;;;;;;;;5071592;28;20247;-83
2022/12/08 11:38:22;;;;;;;5.70;5.10;;;;;;;;;;5071488;28;20207;-82
2022/12/08 11:40:50;;;;;;;7.63;5.50;;;;;;;;;;5071133;28;20237;-83
2022/12/08 11:43:19;;;;;;;6.87;5.20;;;;;;;;;;5072286;28;20216;-83
2022/12/08 11:45:47;;;;;;;10.77;7.30;;;;;;;;;;5071384;28;20236;-83
2022/12/08 11:48:18;;;;;;;28.57;13.27;;;;;;;;;;5070979;28;20201;-83
2022/12/08 11:50:49;;;;;;;17.30;8.10;;;;;;;;;;5071327;28;20228;-83
2022/12/08 11:53:21;;;;;;;16.30;9.23;;;;;;;;;;5072141;28;20201;-83
2022/12/08 11:55:51;;;;;;;11.23;6.93;;;;;;;;;;5072153;28;20230;-83
2022/12/08 11:58:19;;;;;;;9.03;6.50;;;;;;;;;;5071836;28;20204;-83
2022/12/08 12:00:46;;;;;;;8.67;6.13;;;;;;;;;;5071687;28;20241;-83
2022/12/08 12:03:18;;;;;;;11.27;6.27;;;;;;;;;;5072081;28;20214;-83
2022/12/08 12:05:51;;;;;;;8.07;5.00;;;;;;;;;;5071739;28;20221;-83
2022/12/08 12:08:26;;;;;;;8.80;6.57;;;;;;;;;;5072265;28;20577;-83
2022/12/08 12:11:01;;;;;;;6.13;5.07;;;;;;;;;;5070839;28;20240;-83
2022/12/08 12:13:45;;;;;;;10.83;6.33;;;;;;;;;;5071852;28;20200;-84
2022/12/08 12:16:32;;;;;;;7.03;5.60;;;;;;;;;;5070852;28;20225;-83
2022/12/08 12:19:01;;;;;;;11.40;7.33;;;;;;;;;;5069228;28;20193;-83
2022/12/08 12:21:31;;;;;;;10.47;6.90;;;;;;;;;;5068370;28;20233;-83
2022/12/08 12:24:00;;;;;;;9.07;6.50;;;;;;;;;;5070403;28;20212;-83
2022/12/08 12:26:29;;;;;;;10.20;7.03;;;;;;;;;;5071349;28;20235;-83
2022/12/08 12:28:57;;;;;;;8.80;6.03;;;;;;;;;;5071598;28;20209;-83
2022/12/08 12:31:26;;;;;;;7.90;5.73;;;;;;;;;;5070915;28;20703;-83
2022/12/08 12:33:55;;;;;;;8.87;6.30;;;;;;;;;;5070841;28;20210;-84
2022/12/08 12:36:24;;;;;;;9.97;7.13;;;;;;;;;;5070302;28;20236;-82
2022/12/08 12:39:03;;;;;;;14.43;8.53;;;;;;;;;;5070939;28;20673;-84
2022/12/08 12:41:33;;;;;;;11.67;6.33;;;;;;;;;;5069841;28;20237;-83
2022/12/08 12:44:22;;;;;;;10.50;7.10;;;;;;;;;;5070644;28;20205;-83
2022/12/08 12:46:54;;;;;;;7.03;5.57;;;;;;;;;;5068014;28;20241;-83
2022/12/08 12:49:42;;;;;;;14.00;8.10;;;;;;;;;;5070080;28;20202;-83
2022/12/08 12:52:35;;;;;;;12.13;6.53;;;;;;;;;;5070031;28;20999;-84
2022/12/08 12:55:21;;;;;;;10.37;6.83;;;;;;;;;;5070725;28;20201;-84
2022/12/08 12:57:52;;;;;;;12.67;7.10;;;;;;;;;;5070726;28;20228;-84
2022/12/08 13:00:20;;;;;;;6.67;5.27;;;;;;;;;;5070913;28;20544;-83
2022/12/08 13:02:48;;;;;;;8.77;6.13;;;;;;;;;;5070684;28;20236;-84
2022/12/08 13:05:16;;;;;;;8.90;6.07;;;;;;;;;;5070138;28;20205;-83
2022/12/08 13:07:46;;;;;;;7.70;6.17;;;;;;;;;;5069516;28;20209;-83
2022/12/08 13:10:18;;;;;;;8.00;6.47;;;;;;;;;;5070567;28;20216;-82
2022/12/08 13:12:46;;;;;;;8.13;6.47;;;;;;;;;;5070178;28;20228;-83
2022/12/08 13:15:18;;;;;;;6.73;5.83;;;;;;;;;;5070532;28;20212;-82
2022/12/08 13:17:46;;;;;;;7.90;6.73;;;;;;;;;;5070142;28;20197;-83
2022/12/08 13:20:19;;;;;;;12.37;8.57;;;;;;;;;;5069211;28;20213;-83
2022/12/08 13:23:02;;;;;;;19.70;10.13;;;;;;;;;;5070019;28;20221;-83
2022/12/08 13:26:00;;;;;;;11.60;7.50;;;;;;;;;;5069433;28;20241;-83
2022/12/08 13:28:29;;;;;;;7.50;6.17;;;;;;;;;;5069421;28;20197;-82
2022/12/08 13:30:59;;;;;;;9.70;7.27;;;;;;;;;;5068103;28;20247;-83
2022/12/08 13:33:31;;;;;;;8.73;6.43;;;;;;;;;;5069532;28;20281;-83
2022/12/08 13:36:04;;;;;;;9.33;7.00;;;;;;;;;;5069808;28;20272;-83
2022/12/08 13:38:34;;;;;;;10.03;7.10;;;;;;;;;;5070286;28;20205;-83
2022/12/08 13:41:01;;;;;;;10.20;6.90;;;;;;;;;;5069390;28;20290;-83
2022/12/08 13:43:33;;;;;;;10.90;7.27;;;;;;;;;;5070672;28;20208;-83
2022/12/08 13:46:03;;;;;;;9.20;7.30;;;;;;;;;;5069229;28;20229;-82
2022/12/08 13:48:32;;;;;;;11.27;7.93;;;;;;;;;;5069591;28;20583;-84
2022/12/08 13:51:08;;;;;;;7.77;5.20;;;;;;;;;;5068588;28;20320;-83
2022/12/08 13:53:39;;;;;;;9.60;7.03;;;;;;;;;;5069310;28;20228;-83
2022/12/08 13:56:07;;;;;;;9.87;6.93;;;;;;;;;;5069193;28;20233;-82
2022/12/08 13:58:35;;;;;;;8.97;7.00;;;;;;;;;;5068843;28;20212;-83
2022/12/08 14:01:06;;;;;;;9.90;6.90;;;;;;;;;;5068642;28;20363;-83
2022/12/08 14:03:35;;;;;;;8.20;6.73;;;;;;;;;;5069932;28;20370;-83
2022/12/08 14:06:03;;;;;;;10.40;6.37;;;;;;;;;;5069638;28;20221;-82
2022/12/08 14:08:31;;;;;;;9.67;6.63;;;;;;;;;;5068253;28;20662;-83
2022/12/08 14:11:00;;;;;;;7.57;6.03;;;;;;;;;;5068627;28;20238;-83
2022/12/08 14:13:27;;;;;;;9.63;6.67;;;;;;;;;;5070336;28;20637;-83
2022/12/08 14:15:54;;;;;;;7.53;6.37;;;;;;;;;;5069361;28;20240;-83
2022/12/08 14:18:24;;;;;;;7.90;6.47;;;;;;;;;;5068876;28;20672;-83
2022/12/08 14:21:00;;;;;;;8.33;6.37;;;;;;;;;;5068307;28;20239;-83
2022/12/08 14:23:27;;;;;;;10.90;7.60;;;;;;;;;;5068479;28;20194;-83
2022/12/08 14:25:55;;;;;;;11.40;6.97;;;;;;;;;;5068366;28;20236;-83
2022/12/08 14:28:22;;;;;;;17.30;7.50;;;;;;;;;;5069434;28;20201;-83
2022/12/08 14:30:50;;;;;;;30.93;13.67;;;;;;;;;;5067801;28;20233;-83
2022/12/08 14:33:17;;;;;;;39.23;17.30;;;;;;;;;;5069954;28;20296;-83
2022/12/08 14:35:50;;;;;;;15.37;7.07;;;;;;;;;;5068606;28;20311;-83
2022/12/08 14:38:17;;;;;;;8.50;6.23;;;;;;;;;;5068906;28;20206;-82
2022/12/08 14:40:45;;;;;;;8.10;6.37;;;;;;;;;;5068281;28;20236;-83
2022/12/08 14:43:17;;;;;;;8.20;7.00;;;;;;;;;;5072442;28;20284;-83